Time;durP1;ratioP1;P1;durP2;ratioP2;P2;SDS_P1;SDS_P2;PMS_P1;PMS_P2;Temp;Humidity;BMP_temperature;BMP_pressure;BME280_temperature;BME280_humidity;BME280_pressure;Samples;Min_cycle;Max_cycle;Signal;HPM_P1;HPM_P2
2022/12/12 00:00:08;;;;;;;50.10;26.20;;;;;;;;;;5034436;28;20053;-85
2022/12/12 00:02:33;;;;;;;43.22;22.92;;;;;;;;;;5033916;28;20033;-85
2022/12/12 00:04:58;;;;;;;39.40;22.58;;;;;;;;;;5034723;28;20057;-85
2022/12/12 00:07:23;;;;;;;44.47;22.93;;;;;;;;;;5032929;28;20049;-86
2022/12/12 00:09:49;;;;;;;43.13;23.17;;;;;;;;;;5032707;28;20072;-85
2022/12/12 00:12:14;;;;;;;42.10;22.33;;;;;;;;;;5033416;28;20038;-85
2022/12/12 00:14:39;;;;;;;43.42;23.30;;;;;;;;;;5030559;28;20076;-85
2022/12/12 00:17:04;;;;;;;43.17;22.57;;;;;;;;;;5031953;28;20106;-85
2022/12/12 00:19:30;;;;;;;48.00;24.30;;;;;;;;;;5032944;28;20068;-85
2022/12/12 00:21:55;;;;;;;40.50;21.98;;;;;;;;;;5025224;28;20038;-85
2022/12/12 00:24:20;;;;;;;45.13;22.83;;;;;;;;;;5020620;28;20037;-85
2022/12/12 00:26:45;;;;;;;43.80;23.13;;;;;;;;;;5015631;28;20036;-85
2022/12/12 00:29:10;;;;;;;46.20;24.77;;;;;;;;;;5030472;28;20068;-85
2022/12/12 00:31:35;;;;;;;50.03;25.73;;;;;;;;;;5016767;28;20897;-84
2022/12/12 00:34:01;;;;;;;50.97;25.93;;;;;;;;;;5012562;28;20038;-85
2022/12/12 00:36:27;;;;;;;46.40;24.10;;;;;;;;;;5024239;28;20322;-85
2022/12/12 00:38:52;;;;;;;48.33;25.75;;;;;;;;;;5031790;28;20033;-85
2022/12/12 00:41:18;;;;;;;50.00;25.98;;;;;;;;;;5029759;28;20029;-85
2022/12/12 00:43:43;;;;;;;51.65;26.58;;;;;;;;;;5029300;28;20033;-84
2022/12/12 00:46:11;;;;;;;52.25;26.88;;;;;;;;;;5030239;28;20029;-84
2022/12/12 00:48:37;;;;;;;49.20;26.25;;;;;;;;;;5029438;28;20029;-84
2022/12/12 00:51:07;;;;;;;49.70;25.87;;;;;;;;;;5029165;28;20526;-85
2022/12/12 00:53:32;;;;;;;51.80;26.13;;;;;;;;;;5030287;28;20367;-85
2022/12/12 00:55:57;;;;;;;55.47;26.00;;;;;;;;;;5029178;28;20176;-85
2022/12/12 00:58:23;;;;;;;46.20;24.93;;;;;;;;;;5030211;28;20300;-84
2022/12/12 01:00:48;;;;;;;49.58;27.45;;;;;;;;;;5030459;28;20038;-85
2022/12/12 01:03:13;;;;;;;52.30;26.27;;;;;;;;;;5031072;28;20507;-85
2022/12/12 01:05:38;;;;;;;48.63;26.20;;;;;;;;;;5032054;28;20340;-84
2022/12/12 01:08:04;;;;;;;49.08;26.05;;;;;;;;;;5039443;28;20044;-85
2022/12/12 01:10:29;;;;;;;47.50;24.42;;;;;;;;;;5031842;28;20124;-85
2022/12/12 01:12:54;;;;;;;51.27;25.63;;;;;;;;;;5032697;28;20463;-85
2022/12/12 01:15:20;;;;;;;50.97;24.63;;;;;;;;;;5032214;28;20037;-85
2022/12/12 01:17:45;;;;;;;47.92;24.88;;;;;;;;;;5029239;28;20541;-85
2022/12/12 01:20:16;;;;;;;49.30;25.80;;;;;;;;;;5021844;28;20033;-85
2022/12/12 01:22:41;;;;;;;47.15;24.77;;;;;;;;;;5032431;28;20045;-85
2022/12/12 01:25:07;;;;;;;47.93;24.67;;;;;;;;;;5034120;28;20049;-85
2022/12/12 01:27:32;;;;;;;48.35;25.80;;;;;;;;;;5034488;28;20041;-85
2022/12/12 01:30:00;;;;;;;50.05;25.95;;;;;;;;;;5025777;28;20435;-85
2022/12/12 01:32:25;;;;;;;51.75;26.60;;;;;;;;;;5022564;28;20049;-85
2022/12/12 01:34:51;;;;;;;47.25;25.15;;;;;;;;;;5032463;28;20053;-85
2022/12/12 01:37:16;;;;;;;45.73;23.87;;;;;;;;;;5032118;28;20072;-85
2022/12/12 01:39:41;;;;;;;48.43;25.27;;;;;;;;;;5031441;28;20336;-85
2022/12/12 01:42:11;;;;;;;47.10;25.10;;;;;;;;;;5030598;28;20103;-85
2022/12/12 01:44:47;;;;;;;46.57;24.13;;;;;;;;;;5031674;28;20029;-85
2022/12/12 01:47:13;;;;;;;51.13;24.83;;;;;;;;;;5031582;28;20033;-85
2022/12/12 01:49:39;;;;;;;50.33;25.58;;;;;;;;;;5032617;28;20045;-85
2022/12/12 01:52:07;;;;;;;48.85;24.65;;;;;;;;;;5032702;28;20584;-85
2022/12/12 01:54:39;;;;;;;46.10;24.25;;;;;;;;;;5032165;28;20149;-85
2022/12/12 01:57:07;;;;;;;43.38;22.42;;;;;;;;;;5032293;28;20373;-85
2022/12/12 01:59:33;;;;;;;36.35;20.23;;;;;;;;;;5032440;28;20053;-85
2022/12/12 02:01:58;;;;;;;51.58;25.05;;;;;;;;;;5031410;28;20064;-85
2022/12/12 02:04:24;;;;;;;53.33;26.88;;;;;;;;;;5046742;28;20033;-85
2022/12/12 02:06:50;;;;;;;48.63;24.63;;;;;;;;;;5048314;28;20033;-85
2022/12/12 02:09:15;;;;;;;48.85;25.02;;;;;;;;;;5031950;28;20047;-85
2022/12/12 02:11:47;;;;;;;42.97;22.73;;;;;;;;;;5031643;28;20038;-85
2022/12/12 02:14:15;;;;;;;47.10;23.60;;;;;;;;;;5018916;28;20038;-85
2022/12/12 02:16:49;;;;;;;45.35;22.90;;;;;;;;;;5027987;28;20720;-85
2022/12/12 02:19:33;;;;;;;41.53;22.33;;;;;;;;;;5034456;28;20577;-85
2022/12/12 02:22:11;;;;;;;44.25;20.92;;;;;;;;;;5036880;28;20090;-85
2022/12/12 02:24:50;;;;;;;44.33;23.40;;;;;;;;;;5037107;28;20041;-85
2022/12/12 02:27:25;;;;;;;44.90;24.20;;;;;;;;;;5035266;28;20684;-85
2022/12/12 02:29:53;;;;;;;38.65;19.25;;;;;;;;;;5033767;28;20736;-85
2022/12/12 02:32:19;;;;;;;34.30;18.83;;;;;;;;;;5034950;28;20037;-85
2022/12/12 02:34:52;;;;;;;32.38;16.02;;;;;;;;;;5035878;28;20097;-85
2022/12/12 02:37:33;;;;;;;30.73;16.13;;;;;;;;;;5032644;28;20037;-85
2022/12/12 02:40:07;;;;;;;32.80;17.20;;;;;;;;;;5047713;28;20037;-85
2022/12/12 02:42:43;;;;;;;33.47;17.17;;;;;;;;;;5037037;28;20153;-85
2022/12/12 02:45:12;;;;;;;29.58;16.20;;;;;;;;;;5038551;28;20048;-85
2022/12/12 02:47:39;;;;;;;37.13;19.70;;;;;;;;;;5033353;28;20045;-85
2022/12/12 02:50:08;;;;;;;40.55;21.23;;;;;;;22.38;100.00;120355.13;5018548;28;20045;-85
2022/12/12 02:52:33;;;;;;;47.40;23.85;;;;;;;;;;5034318;28;20042;-85
2022/12/12 02:54:58;;;;;;;41.70;22.33;;;;;;;;;;5021318;28;20511;-85
2022/12/12 02:57:24;;;;;;;45.45;23.98;;;;;;;;;;5027111;28;20059;-85
2022/12/12 02:59:51;;;;;;;47.35;22.95;;;;;;;;;;5028626;28;20044;-85
2022/12/12 03:02:16;;;;;;;39.60;20.85;;;;;;;;;;5034868;28;20038;-85
2022/12/12 03:07:53;;;;;;;34.63;17.70;;;;;;;;;;5036445;28;20041;-85
2022/12/12 03:10:18;;;;;;;33.63;18.13;;;;;;;;;;5033366;28;20049;-85
2022/12/12 03:12:53;;;;;;;34.67;17.23;;;;;;;;;;5035406;28;20045;-86
2022/12/12 03:15:23;;;;;;;36.42;19.63;;;;;;;;;;5025885;28;20284;-85
2022/12/12 03:17:53;;;;;;;33.65;17.10;;;;;;;;;;5031791;28;20045;-85
2022/12/12 03:20:25;;;;;;;33.80;17.02;;;;;;;;;;5035788;28;20034;-85
2022/12/12 03:22:55;;;;;;;30.50;15.18;;;;;;;;;;5021400;28;20361;-85
2022/12/12 03:25:26;;;;;;;26.23;13.73;;;;;;;;;;5029928;28;20080;-85
2022/12/12 03:27:55;;;;;;;25.92;13.63;;;;;;;;;;5034417;28;20412;-85
2022/12/12 03:30:20;;;;;;;25.73;13.27;;;;;;;;;;5031069;28;20045;-85
2022/12/12 03:32:59;;;;;;;21.27;11.73;;;;;;;;;;5022484;28;20041;-84
2022/12/12 03:35:30;;;;;;;25.00;13.13;;;;;;;;;;5026139;28;20042;-84
2022/12/12 03:38:00;;;;;;;25.67;13.38;;;;;;;;;;5027836;28;20080;-85
2022/12/12 03:40:32;;;;;;;25.30;13.15;;;;;;;;;;5024837;28;20037;-84
2022/12/12 03:43:20;;;;;;;24.40;12.65;;;;;;;;;;5029999;28;20045;-84
2022/12/12 03:45:45;;;;;;;27.15;13.73;;;;;;;;;;5021086;28;20582;-85
2022/12/12 03:48:21;;;;;;;29.03;15.37;;;;;;;;;;5019056;28;20068;-84
2022/12/12 03:50:52;;;;;;;26.17;14.57;;;;;;;;;;5033800;28;20038;-85
2022/12/12 03:53:21;;;;;;;25.20;13.90;;;;;;;;;;5040322;28;20041;-85
2022/12/12 03:55:49;;;;;;;27.58;15.00;;;;;;;;;;5034910;28;20046;-85
2022/12/12 03:58:25;;;;;;;35.63;17.77;;;;;;;;;;5030537;28;20120;-85
2022/12/12 04:00:52;;;;;;;32.80;16.58;;;;;;;;;;5031043;28;20021;-84
2022/12/12 04:03:25;;;;;;;33.83;17.00;;;;;;;;;;5030531;28;20038;-85
2022/12/12 04:12:57;;;;;;;29.80;14.95;;;;;;;;;;5031907;28;20036;-85
2022/12/12 04:14:30;;;;;;;27.25;13.82;;;;;;;;;;5030726;28;20049;-84
2022/12/12 04:16:59;;;;;;;29.33;15.23;;;;;;;;;;5026575;28;20127;-84
2022/12/12 04:25:25;;;;;;;34.10;17.65;;;;;;;;;;5027627;28;20067;-85
2022/12/12 04:27:53;;;;;;;35.88;18.23;;;;;;;;;;5028784;28;20041;-85
2022/12/12 04:30:18;;;;;;;38.85;18.50;;;;;;;;;;5021790;28;20034;-84
2022/12/12 04:32:43;;;;;;;37.83;19.27;;;;;;;;;;5024201;28;20034;-85
2022/12/12 04:35:11;;;;;;;33.90;18.13;;;;;;;;;;5025767;28;20461;-86
2022/12/12 04:37:39;;;;;;;27.90;16.05;;;;;;;;;;5020049;28;20042;-84
2022/12/12 04:40:06;;;;;;;29.10;14.98;;;;;;;;;;5028628;28;20038;-84
2022/12/12 04:42:37;;;;;;;27.38;14.55;;;;;;;;;;5029368;28;20041;-84
2022/12/12 04:45:08;;;;;;;32.97;16.42;;;;;;;;;;5023231;28;20074;-84
2022/12/12 04:47:35;;;;;;;33.53;16.10;;;;;;;;;;5021257;28;20389;-85
2022/12/12 04:50:01;;;;;;;30.00;15.10;;;;;;;;;;5029331;28;20092;-85
2022/12/12 04:52:26;;;;;;;29.42;15.50;;;;;;;;;;5030141;28;20626;-85
2022/12/12 04:55:06;;;;;;;33.80;17.52;;;;;;;;;;5029810;28;20048;-85
2022/12/12 04:57:46;;;;;;;37.97;19.40;;;;;;;;;;5029327;28;20087;-85
2022/12/12 05:00:12;;;;;;;40.25;20.63;;;;;;;;;;5029409;28;20888;-85
2022/12/12 05:02:43;;;;;;;44.65;21.20;;;;;;;;;;5029434;28;20048;-84
2022/12/12 05:05:17;;;;;;;40.90;19.90;;;;;;;;;;5030421;28;20108;-85
2022/12/12 05:07:45;;;;;;;40.92;20.08;;;;;;;;;;5030200;28;20040;-85
2022/12/12 05:10:13;;;;;;;39.15;19.88;;;;;;;;;;5031975;28;20532;-85
2022/12/12 05:12:41;;;;;;;36.10;19.17;;;;;;;;;;5031163;28;20133;-85
2022/12/12 05:15:07;;;;;;;43.60;21.92;;;;;;;;;;5031324;28;20040;-85
2022/12/12 05:17:39;;;;;;;35.10;17.40;;;;;;;;;;5028954;28;20425;-85
2022/12/12 05:20:04;;;;;;;31.63;17.08;;;;;;;;;;5027892;28;20042;-85
2022/12/12 05:22:29;;;;;;;41.75;20.65;;;;;;;;;;5028672;28;20040;-85
2022/12/12 05:24:55;;;;;;;36.78;18.05;;;;;;;;;;5029942;28;20025;-85
2022/12/12 05:27:20;;;;;;;33.20;17.43;;;;;;;;;;5034088;28;20118;-84
2022/12/12 05:29:45;;;;;;;32.93;17.13;;;;;;;;;;5029143;28;20040;-85
2022/12/12 05:32:11;;;;;;;36.10;18.50;;;;;;;;;;5027287;28;20042;-84
2022/12/12 05:34:36;;;;;;;33.13;16.67;;;;;;;;;;5030382;28;20037;-85
2022/12/12 05:37:01;;;;;;;37.67;18.70;;;;;;;;;;5031677;28;20034;-85
2022/12/12 05:39:27;;;;;;;29.27;15.93;;;;;;;;;;5030944;28;20052;-85
2022/12/12 05:41:52;;;;;;;30.77;17.00;;;;;;;;;;5025736;28;20296;-85
2022/12/12 05:44:17;;;;;;;28.27;14.17;;;;;;;;;;5026336;28;20029;-85
2022/12/12 05:46:42;;;;;;;33.70;17.40;;;;;;;;;;5026963;28;20042;-85
2022/12/12 05:49:07;;;;;;;33.67;17.00;;;;;;;;;;5030097;28;20040;-85
2022/12/12 05:51:33;;;;;;;38.20;19.35;;;;;;;;;;5030951;28;20053;-85
2022/12/12 05:53:59;;;;;;;39.65;20.35;;;;;;;;;;5031822;28;20069;-85
2022/12/12 05:56:24;;;;;;;39.78;20.75;;;;;;;;;;5031387;28;20441;-86
2022/12/12 05:58:49;;;;;;;35.03;19.30;;;;;;;;;;5032059;28;20068;-86
2022/12/12 06:01:14;;;;;;;45.03;22.10;;;;;;;;;;5031080;28;20361;-85
2022/12/12 06:03:39;;;;;;;37.83;19.63;;;;;;;;;;5030956;28;20264;-86
2022/12/12 06:06:05;;;;;;;38.87;19.30;;;;;;;;;;5030769;28;20359;-85
2022/12/12 06:08:30;;;;;;;37.50;19.15;;;;;;;;;;5030407;28;20037;-85
2022/12/12 06:10:55;;;;;;;42.93;21.63;;;;;;;;;;5030361;28;20033;-85
2022/12/12 06:13:20;;;;;;;45.13;22.53;;;;;;;;;;5030594;28;20268;-85
2022/12/12 06:15:45;;;;;;;43.35;21.20;;;;;;;;;;5029599;28;20436;-85
2022/12/12 06:18:11;;;;;;;36.40;18.87;;;;;;;;;;5032289;28;20045;-85
2022/12/12 06:20:36;;;;;;;42.80;20.13;;;;;;;;;;5024444;28;20050;-85
2022/12/12 06:23:01;;;;;;;38.28;20.50;;;;;;;;;;5024528;28;20376;-85
2022/12/12 06:25:26;;;;;;;42.73;21.27;;;;;;;;;;5029205;28;20037;-86
2022/12/12 06:27:52;;;;;;;42.13;21.43;;;;;;;;;;5011895;28;20177;-85
2022/12/12 06:30:17;;;;;;;38.95;19.67;;;;;;;;;;5029988;28;20087;-85
2022/12/12 06:32:43;;;;;;;39.08;19.65;;;;;;;;;;5030220;28;20037;-84
2022/12/12 06:35:08;;;;;;;35.80;18.65;;;;;;;;;;5021755;28;20049;-85
2022/12/12 06:37:34;;;;;;;39.08;18.92;;;;;;;;;;5029795;28;20033;-85
2022/12/12 06:39:59;;;;;;;32.92;16.65;;;;;;;;;;5036351;28;20512;-86
2022/12/12 06:42:24;;;;;;;31.27;15.60;;;;;;;;;;5032852;28;20107;-84
2022/12/12 06:44:49;;;;;;;28.97;15.23;;;;;;;;;;5026814;28;20037;-85
2022/12/12 06:47:24;;;;;;;31.87;16.73;;;;;;;;;;5031927;28;20030;-87
2022/12/12 06:49:49;;;;;;;32.13;16.05;;;;;;;;;;5032429;28;20041;-86
2022/12/12 06:52:14;;;;;;;32.40;16.80;;;;;;;;;;5024928;28;20045;-86
2022/12/12 06:54:39;;;;;;;31.30;15.60;;;;;;;;;;5032566;28;20095;-86
2022/12/12 06:57:17;;;;;;;36.20;19.13;;;;;;;;;;5032216;28;20438;-86
2022/12/12 06:59:42;;;;;;;36.75;18.98;;;;;;;;;;5030157;28;20068;-86
2022/12/12 07:02:09;;;;;;;42.10;21.05;;;;;;;;;;5030741;28;20033;-86
2022/12/12 07:07:54;;;;;;;40.00;21.00;;;;;;;;;;5339284;22;20045;-87
2022/12/12 07:10:43;;;;;;;41.67;21.65;;;;;;;;;;5032163;28;20033;-86
2022/12/12 07:16:24;;;;;;;41.85;20.50;;;;;;;;;;4989143;28;20049;-86
2022/12/12 07:19:43;;;;;;;38.50;19.95;;;;;;;;;;5025356;28;20113;-86
2022/12/12 07:22:14;;;;;;;37.70;19.42;;;;;;;;;;5014291;28;20033;-87
2022/12/12 07:24:39;;;;;;;35.10;19.38;;;;;;;;;;4992674;28;20045;-85
2022/12/12 07:27:13;;;;;;;42.65;21.70;;;;;;;;;;5008397;28;20029;-85
2022/12/12 07:29:39;;;;;;;39.72;19.90;;;;;;;;;;5020529;28;20038;-84
2022/12/12 07:32:13;;;;;;;44.60;21.92;;;;;;;;;;4996930;28;20044;-86
2022/12/12 07:37:58;;;;;;;36.75;19.05;;;;;;;;;;5166889;23;20036;-86
2022/12/12 07:49:42;;;;;;;46.72;21.88;;;;;;;;;;5049120;28;20129;-86
2022/12/12 07:55:17;;;;;;;45.05;21.95;;;;;;;;;;5049067;28;20127;-86
2022/12/12 07:57:53;;;;;;;;;;;;;;;;;;;;;
2022/12/12 08:00:49;;;;;;;48.38;23.05;;;;;;;;;;5007669;28;20426;-86
2022/12/12 08:03:41;;;;;;;48.80;23.00;;;;;;;;;;5046018;28;20040;-86
2022/12/12 08:06:06;;;;;;;46.60;22.17;;;;;;;;;;5043488;28;20029;-86
2022/12/12 08:08:32;;;;;;;45.75;22.80;;;;;;;;;;5050800;28;20443;-84
2022/12/12 08:10:57;;;;;;;45.75;21.70;;;;;;;;;;5053620;28;20082;-88
2022/12/12 08:13:22;;;;;;;39.83;19.57;;;;;;;;;;5056017;28;20048;-84
2022/12/12 08:15:47;;;;;;;37.53;19.77;;;;;;;;;;5048268;28;20047;-85
2022/12/12 08:18:13;;;;;;;46.27;21.80;;;;;;;;;;5047962;28;20454;-84
2022/12/12 08:20:39;;;;;;;40.28;19.33;;;;;;;;;;5056478;28;20036;-86
2022/12/12 08:35:20;;;;;;;42.42;20.40;;;;;;;;;;5069410;28;20052;-85
2022/12/12 08:37:46;;;;;;;34.00;18.23;;;;;;;;;;5068956;28;20053;-85
2022/12/12 08:40:26;;;;;;;38.88;19.75;;;;;;;;;;5029932;28;20383;-86
2022/12/12 08:52:26;;;;;;;40.78;21.83;;;;;;;;;;5067456;28;20681;-85
2022/12/12 08:55:20;;;;;;;48.25;23.08;;;;;;;;;;5053066;28;20033;-85
2022/12/12 08:57:48;;;;;;;41.95;21.10;;;;;;;;;;5056952;28;20039;-86
2022/12/12 09:03:46;;;;;;;39.22;19.58;;;;;;;-145.28;100.00;65941.84;5030111;28;20036;-86
2022/12/12 09:06:13;;;;;;;41.80;21.70;;;;;;;;;;5061292;28;20071;-86
2022/12/12 09:08:38;;;;;;;42.17;23.08;;;;;;;;;;5066680;28;20614;-85
2022/12/12 09:11:04;;;;;;;39.85;21.30;;;;;;;;;;5052940;28;20040;-85
2022/12/12 09:13:29;;;;;;;43.85;23.67;;;;;;;;;;5066017;28;20032;-84
2022/12/12 09:15:54;;;;;;;39.83;21.02;;;;;;;;;;5056243;28;20041;-83
2022/12/12 09:18:20;;;;;;;43.25;21.75;;;;;;;;;;5055078;28;20039;-85
2022/12/12 09:20:49;;;;;;;38.53;20.95;;;;;;;;;;5052023;28;20044;-84
2022/12/12 09:23:15;;;;;;;38.35;20.75;;;;;;;;;;5052521;28;20032;-86
2022/12/12 09:25:43;;;;;;;38.10;20.27;;;;;;;;;;5054682;28;20036;-86
2022/12/12 09:28:09;;;;;;;37.13;19.88;;;;;;;;;;5046904;28;20041;-86
2022/12/12 09:30:34;;;;;;;35.40;19.10;;;;;;;;;;5035923;28;20055;-84
2022/12/12 09:32:59;;;;;;;39.63;21.70;;;;;;;;;;5053529;28;20123;-83
2022/12/12 09:35:25;;;;;;;41.17;22.27;;;;;;;;;;5053181;28;20397;-82
2022/12/12 09:37:50;;;;;;;40.25;21.85;;;;;;;;;;5045515;28;20340;-83
2022/12/12 09:40:17;;;;;;;41.30;22.07;;;;;;;;;;5072194;28;20044;-84
2022/12/12 09:42:46;;;;;;;38.28;21.30;;;;;;;;;;5048189;28;20094;-83
2022/12/12 09:45:12;;;;;;;36.95;20.83;;;;;;;;;;5044265;28;20036;-82
2022/12/12 09:47:45;;;;;;;34.78;19.65;;;;;;;;;;5056173;28;20047;-84
2022/12/12 09:50:17;;;;;;;37.40;20.08;;;;;;;;;;5066416;28;20126;-84
2022/12/12 09:52:43;;;;;;;35.78;20.00;;;;;;;;;;5059098;28;20108;-86
2022/12/12 09:55:27;;;;;;;32.10;17.33;;;;;;;;;;5061943;28;20040;-85
2022/12/12 09:57:52;;;;;;;36.25;19.45;;;;;;;;;;5055706;28;20242;-85
2022/12/12 10:00:18;;;;;;;35.60;20.13;;;;;;;;;;5063798;28;20094;-83
2022/12/12 10:02:54;;;;;;;35.33;20.00;;;;;;;;;;5046903;28;20420;-85
2022/12/12 10:05:25;;;;;;;31.83;18.30;;;;;;;;;;5047284;28;20036;-84
2022/12/12 10:07:59;;;;;;;33.13;18.38;;;;;;;;;;5038690;28;20033;-84
2022/12/12 10:10:25;;;;;;;31.98;17.75;;;;;;;;;;5067869;28;20131;-85
2022/12/12 10:12:50;;;;;;;31.53;17.27;;;;;;;;;;5066002;28;20616;-84
2022/12/12 10:15:19;;;;;;;34.03;17.63;;;;;;;;;;5067843;28;20036;-84
2022/12/12 10:17:45;;;;;;;31.13;18.02;;;;;;;;;;5067839;28;20036;-85
2022/12/12 10:20:21;;;;;;;34.92;18.38;;;;;;;;;;5045044;28;20067;-85
2022/12/12 10:22:59;;;;;;;32.60;16.90;;;;;;;;;;5049485;28;20570;-84
2022/12/12 10:25:37;;;;;;;33.25;18.30;;;;;;;;;;5039989;28;20546;-84
2022/12/12 10:28:11;;;;;;;30.70;16.80;;;;;;;;;;5044557;28;20120;-84
2022/12/12 10:30:42;;;;;;;32.00;17.27;;;;;;;;;;5048416;28;20029;-84
2022/12/12 10:33:07;;;;;;;34.63;19.73;;;;;;;;;;5063154;28;20029;-83
2022/12/12 10:35:53;;;;;;;32.43;18.37;;;;;;;;;;5041560;28;20032;-84
2022/12/12 10:38:38;;;;;;;33.10;17.15;;;;;;;;;;5042604;28;20298;-84
2022/12/12 10:41:09;;;;;;;29.58;16.02;;;;;;;;;;5050799;28;20315;-83
2022/12/12 10:43:34;;;;;;;31.33;16.95;;;;;;;;;;5046987;28;20498;-84
2022/12/12 10:46:02;;;;;;;33.40;17.53;;;;;;;;;;5051241;28;20059;-84
2022/12/12 10:48:28;;;;;;;33.05;17.27;;;;;;;;;;5049678;28;20091;-83
2022/12/12 10:50:56;;;;;;;31.35;15.88;;;;;;;;;;5049464;28;20048;-84
2022/12/12 10:53:22;;;;;;;28.35;15.65;;;;;;;;;;5065613;28;20045;-84
2022/12/12 10:56:05;;;;;;;30.17;15.60;;;;;;;;;;5066944;28;20049;-84
2022/12/12 10:58:41;;;;;;;25.75;14.13;;;;;;;;;;5056422;28;20075;-84
2022/12/12 11:01:20;;;;;;;28.23;14.57;;;;;;;;;;5065012;28;20036;-83
2022/12/12 11:03:50;;;;;;;28.85;14.00;;;;;;;;;;5051392;28;20036;-84
2022/12/12 11:06:23;;;;;;;24.77;13.68;;;;;;;;;;5067747;28;20413;-83
2022/12/12 11:08:52;;;;;;;22.85;13.63;;;;;;;;;;5063483;28;20448;-83
2022/12/12 11:11:22;;;;;;;24.20;12.98;;;;;;;;;;5066287;28;20045;-82
2022/12/12 11:13:47;;;;;;;22.27;12.68;;;;;;;;;;5067131;28;20040;-82
2022/12/12 11:16:15;;;;;;;21.70;12.02;;;;;;;;;;5055748;28;20029;-83
2022/12/12 11:18:42;;;;;;;23.83;12.55;;;;;;;;;;5073969;28;20036;-82
2022/12/12 11:21:09;;;;;;;26.50;13.63;;;;;;;;;;5071635;28;20036;-82
2022/12/12 11:23:37;;;;;;;27.00;14.23;;;;;;;;;;5046896;28;20036;-82
2022/12/12 11:26:04;;;;;;;22.88;12.82;;;;;;;;;;5050460;28;20461;-82
2022/12/12 11:28:35;;;;;;;24.08;13.15;;;;;;;;;;5070680;28;20040;-83
2022/12/12 11:31:01;;;;;;;28.50;14.73;;;;;;;;;;5055384;28;20040;-83
2022/12/12 11:33:30;;;;;;;27.67;13.82;;;;;;;;;;5063767;28;20051;-83
2022/12/12 11:35:56;;;;;;;28.52;13.70;;;;;;;;;;5062743;28;20084;-82
2022/12/12 11:38:25;;;;;;;24.38;13.38;;;;;;;;;;5044531;28;20084;-83
2022/12/12 11:41:07;;;;;;;22.60;12.90;;;;;;;;;;5068533;28;20033;-83
2022/12/12 11:43:37;;;;;;;20.60;11.52;;;;;;;;;;5062950;28;20051;-82
2022/12/12 11:46:06;;;;;;;20.90;11.35;;;;;;;;;;5043455;28;20583;-83
2022/12/12 11:48:32;;;;;;;18.50;11.07;;;;;;;;;;5049288;28;20036;-83
2022/12/12 11:50:57;;;;;;;22.27;12.02;;;;;;;;;;5044835;28;20051;-83
2022/12/12 11:53:22;;;;;;;20.70;11.27;;;;;;;;;;5044269;28;20041;-86
2022/12/12 11:56:11;;;;;;;19.42;10.75;;;;;;;;;;5051140;28;20052;-85
2022/12/12 11:58:50;;;;;;;22.08;12.23;;;;;;;;;;5071201;28;20590;-85
2022/12/12 12:01:21;;;;;;;26.33;14.05;;;;;;;;;;5051278;28;20127;-84
2022/12/12 12:03:58;;;;;;;21.17;12.25;;;;;;;;;;5075400;28;20032;-85
2022/12/12 12:06:34;;;;;;;22.10;11.98;;;;;;;;;;5054531;28;20084;-83
2022/12/12 12:09:22;;;;;;;21.83;12.45;;;;;;;;;;5057520;28;20033;-86
2022/12/12 12:12:05;;;;;;;21.05;11.40;;;;;;;;;;5063696;28;20586;-86
2022/12/12 12:14:48;;;;;;;19.73;11.15;;;;;;;;;;5075687;28;20056;-86
2022/12/12 12:17:29;;;;;;;20.92;11.15;;;;;;;;;;5055929;28;20037;-85
2022/12/12 12:20:00;;;;;;;17.92;10.65;;;;;;;;;;5069692;28;20024;-86
2022/12/12 12:22:25;;;;;;;;;;;;;;;;;;5048300;28;20052;-85
2022/12/12 12:25:19;;;;;;;16.92;9.98;;;;;;;;;;5069234;28;19974;-87
2022/12/12 12:27:44;;;;;;;16.23;9.18;;;;;;;;;;5052790;28;20056;-85
2022/12/12 12:30:17;;;;;;;19.05;10.27;;;;;;;;;;5046782;28;20043;-85
2022/12/12 12:32:51;;;;;;;17.80;9.98;;;;;;;;;;5066227;28;20493;-85
2022/12/12 12:35:26;;;;;;;19.20;11.05;;;;;;;;;;5061224;28;20096;-87
2022/12/12 12:38:10;;;;;;;22.50;12.43;;;;;;;;;;5052894;28;20036;-87
2022/12/12 12:40:54;;;;;;;22.05;12.82;;;;;;;;;;5050617;28;20037;-86
2022/12/12 12:43:19;;;;;;;23.10;12.13;;;;;;;;;;5054483;28;20039;-86
2022/12/12 12:46:06;;;;;;;20.27;11.55;;;;;;;;;;5045564;28;20060;-86
2022/12/12 12:48:36;;;;;;;19.45;11.82;;;;;;;;;;5070178;28;20037;-86
2022/12/12 12:51:11;;;;;;;22.20;13.10;;;;;;;;;;5045452;28;20125;-84
2022/12/12 12:53:39;;;;;;;21.38;11.13;;;;;;;;;;5049442;28;20639;-85
2022/12/12 12:56:13;;;;;;;21.17;12.23;;;;;;;;;;5055348;28;20037;-85
2022/12/12 12:58:41;;;;;;;21.38;11.40;;;;;;;;;;5056350;28;20040;-86
2022/12/12 13:01:27;;;;;;;18.60;10.88;;;;;;;;;;5046184;28;20032;-87
2022/12/12 13:03:52;;;;;;;23.02;12.18;;;;;;;;;;5066662;28;20033;-83
2022/12/12 13:06:19;;;;;;;20.63;11.60;;;;;;;;;;5071911;28;20033;-86
2022/12/12 13:09:01;;;;;;;20.98;11.88;;;;;;;;;;5068454;28;20282;-84
2022/12/12 13:11:32;;;;;;;23.48;13.50;;;;;;;;;;5053495;28;20068;-87
2022/12/12 13:14:08;;;;;;;26.02;13.73;;;;;;;;;;5047316;28;20069;-85
2022/12/12 13:16:33;;;;;;;25.00;13.18;;;;;;;;;;5051111;28;20064;-86
2022/12/12 13:19:08;;;;;;;25.50;13.25;;;;;;;;;;5041233;28;20033;-84
2022/12/12 13:21:45;;;;;;;24.33;13.27;;;;;;;;;;5051449;28;20041;-84
2022/12/12 13:24:11;;;;;;;21.92;12.38;;;;;;;;;;5059545;28;20036;-85
2022/12/12 13:26:59;;;;;;;19.55;11.27;;;;;;;;;;5044844;28;20623;-84
2022/12/12 13:29:39;;;;;;;20.70;11.63;;;;;;;;;;5066457;28;20064;-85
2022/12/12 13:32:36;;;;;;;18.52;10.18;;;;;;;;;;5041172;28;20040;-86
2022/12/12 13:35:10;;;;;;;20.20;10.95;;;;;;;;;;5012323;28;20514;-87
2022/12/12 13:37:42;;;;;;;19.00;10.68;;;;;;;;;;5065302;28;20044;-84
2022/12/12 13:40:19;;;;;;;20.95;10.73;;;;;;;;;;5038879;28;20112;-87
2022/12/12 13:42:52;;;;;;;18.67;10.25;;;;;;;;;;5066918;28;20037;-86
2022/12/12 13:45:33;;;;;;;18.15;10.27;;;;;;;;;;5066722;28;20032;-87
2022/12/12 13:47:58;;;;;;;;;;;;;;;;;;5050614;28;20072;-85
2022/12/12 13:50:23;;;;;;;19.00;10.75;;;;;;;;;;5051097;28;20391;-87
2022/12/12 13:53:07;;;;;;;19.58;11.02;;;;;;;;;;5039207;28;20064;-85
2022/12/12 13:55:36;;;;;;;19.15;11.38;;;;;;;;;;5038702;28;20066;-85
2022/12/12 13:58:06;;;;;;;17.20;9.65;;;;;;;;;;5049655;28;20151;-85
2022/12/12 14:00:32;;;;;;;19.10;11.32;;;;;;;;;;5069879;28;20119;-86
2022/12/12 14:03:18;;;;;;;18.08;10.05;;;;;;;;;;5049069;28;20071;-84
2022/12/12 14:05:45;;;;;;;17.75;10.02;;;;;;;;;;5042016;28;20068;-84
2022/12/12 14:08:10;;;;;;;23.92;12.45;;;;;;;;;;5062461;28;20081;-85
2022/12/12 14:10:42;;;;;;;19.25;10.95;;;;;;;;;;5043313;28;20045;-84
2022/12/12 14:13:22;;;;;;;19.73;11.60;;;;;;;;;;5043991;28;20041;-86
2022/12/12 14:15:50;;;;;;;20.85;11.23;;;;;;;;;;5072076;28;20032;-85
2022/12/12 14:18:20;;;;;;;24.45;12.40;;;;;;;;;;5049889;28;20036;-86
2022/12/12 14:20:53;;;;;;;19.48;11.35;;;;;;;;;;5046010;28;20044;-83
2022/12/12 14:23:28;;;;;;;20.92;11.23;;;;;;;;;;5041150;28;20415;-84
2022/12/12 14:25:53;;;;;;;24.75;12.75;;;;;;;;;;5055571;28;20044;-85
2022/12/12 14:28:21;;;;;;;22.60;11.27;;;;;;;;;;5066624;28;20588;-85
2022/12/12 14:31:00;;;;;;;21.80;12.05;;;;;;;;;;5054052;28;20033;-84
2022/12/12 14:33:48;;;;;;;21.27;11.52;;;;;;;;;;5053397;28;20151;-84
2022/12/12 14:36:31;;;;;;;19.02;10.88;;;;;;;;;;5047763;28;20086;-86
2022/12/12 14:39:20;;;;;;;19.23;9.32;;;;;;;;;;5054303;28;20124;-86
2022/12/12 14:41:46;;;;;;;18.98;10.10;;;;;;;;;;5030922;28;20036;-86
2022/12/12 14:44:19;;;;;;;15.77;8.98;;;;;;;;;;5060125;28;20036;-86
2022/12/12 14:46:45;;;;;;;16.38;9.55;;;;;;;;;;5054369;28;20041;-86
2022/12/12 14:49:12;;;;;;;15.70;9.20;;;;;;;;;;5054892;28;20037;-87
2022/12/12 14:51:37;;;;;;;14.70;8.25;;;;;;;;;;5070223;28;20048;-86
2022/12/12 14:54:03;;;;;;;16.38;8.52;;;;;;;;;;5052470;28;20667;-84
2022/12/12 14:56:38;;;;;;;20.88;10.90;;;;;;;;;;5068245;28;20047;-84
2022/12/12 14:59:10;;;;;;;18.35;9.38;;;;;;;;;;5069677;28;20059;-85
2022/12/12 15:01:56;;;;;;;16.65;8.35;;;;;;;;;;5050465;28;20060;-85
2022/12/12 15:04:24;;;;;;;15.85;8.80;;;;;;;;;;5042373;28;20052;-86
2022/12/12 15:06:50;;;;;;;15.52;8.50;;;;;;;;;;5043624;28;20052;-85
2022/12/12 15:09:17;;;;;;;14.38;8.27;;;;;;;;;;5047627;28;20048;-85
2022/12/12 15:11:43;;;;;;;13.90;7.60;;;;;;;;;;5051627;28;20036;-85
2022/12/12 15:14:25;;;;;;;14.32;7.85;;;;;;;;;;5051534;28;20047;-86
2022/12/12 15:16:50;;;;;;;16.58;7.93;;;;;;;;;;5046078;28;20039;-85
2022/12/12 15:19:18;;;;;;;14.63;7.87;;;;;;;;;;5036080;28;20029;-85
2022/12/12 15:21:43;;;;;;;13.82;7.50;;;;;;;;;;5070086;28;20539;-85
2022/12/12 15:24:14;;;;;;;14.52;7.65;;;;;;;;;;5040717;28;20036;-84
2022/12/12 15:26:43;;;;;;;12.40;6.60;;;;;;;;;;5038935;28;20037;-85
2022/12/12 15:29:12;;;;;;;13.48;7.35;;;;;;;;;;5066875;28;20102;-86
2022/12/12 15:31:41;;;;;;;13.95;7.80;;;;;;;;;;5063371;28;20040;-84
2022/12/12 15:34:26;;;;;;;13.07;6.93;;;;;;;;;;5044905;28;20504;-85
2022/12/12 15:36:51;;;;;;;11.77;6.35;;;;;;;;;;5055649;28;20040;-85